Time;durP1;ratioP1;P1;durP2;ratioP2;P2;SDS_P1;SDS_P2;PMS_P1;PMS_P2;Temp;Humidity;BMP_temperature;BMP_pressure;BME280_temperature;BME280_humidity;BME280_pressure;Samples;Min_cycle;Max_cycle;Signal;HPM_P1;HPM_P2
2023/10/23 00:01:14;;;;;;;41.63;37.72;;;6.30;99.90;;;;;;4915686;29;20051;-82
2023/10/23 00:03:41;;;;;;;45.13;40.53;;;6.30;99.90;;;;;;4901660;29;20380;-82
2023/10/23 00:06:06;;;;;;;34.65;31.63;;;6.40;99.90;;;;;;4921604;29;20043;-81
2023/10/23 00:08:32;;;;;;;32.15;29.25;;;6.30;99.90;;;;;;4926454;29;20047;-82
2023/10/23 00:10:57;;;;;;;38.10;33.20;;;6.30;99.90;;;;;;4912433;29;20039;-82
2023/10/23 00:13:23;;;;;;;37.78;33.78;;;6.20;99.90;;;;;;4909383;29;20040;-82
2023/10/23 00:15:48;;;;;;;41.30;33.88;;;6.20;99.90;;;;;;4928567;29;20067;-82
2023/10/23 00:18:14;;;;;;;32.58;29.58;;;6.10;99.90;;;;;;4919258;29;20074;-82
2023/10/23 00:20:40;;;;;;;38.53;34.50;;;6.10;99.90;;;;;;4936117;29;20052;-81
2023/10/23 00:23:06;;;;;;;43.20;38.67;;;6.10;99.90;;;;;;4920143;29;20303;-82
2023/10/23 00:25:31;;;;;;;32.58;29.58;;;6.10;99.90;;;;;;4914789;29;20459;-81
2023/10/23 00:27:57;;;;;;;38.60;34.88;;;6.10;99.90;;;;;;4927230;29;20090;-82
2023/10/23 00:30:22;;;;;;;35.95;32.63;;;6.10;99.90;;;;;;4935571;29;20039;-82
2023/10/23 00:32:48;;;;;;;42.45;37.95;;;6.10;99.90;;;;;;4935591;29;20099;-82
2023/10/23 00:35:14;;;;;;;38.50;34.80;;;6.10;99.90;;;;;;4926897;29;20040;-81
2023/10/23 00:37:40;;;;;;;44.20;37.53;;;6.10;99.90;;;;;;4909654;29;20046;-81
2023/10/23 00:40:06;;;;;;;39.47;33.90;;;6.00;99.90;;;;;;4924484;29;20051;-81
2023/10/23 00:42:31;;;;;;;34.88;31.70;;;6.00;99.90;;;;;;4900927;29;20048;-81
2023/10/23 00:44:57;;;;;;;34.40;31.17;;;6.00;99.90;;;;;;4900568;29;20120;-81
2023/10/23 00:47:24;;;;;;;36.38;33.10;;;5.90;99.90;;;;;;4908903;29;20095;-81
2023/10/23 00:49:50;;;;;;;34.53;31.40;;;5.90;99.90;;;;;;4919480;29;20040;-82
2023/10/23 00:52:16;;;;;;;31.08;28.17;;;5.90;99.90;;;;;;4921216;29;20036;-82
2023/10/23 00:54:41;;;;;;;34.25;31.08;;;5.80;99.90;;;;;;4899700;29;21508;-82
2023/10/23 00:57:08;;;;;;;34.80;31.60;;;5.80;99.90;;;;;;4914720;29;20036;-82
2023/10/23 00:59:34;;;;;;;35.83;32.50;;;5.80;99.90;;;;;;4918679;29;20046;-82
2023/10/23 01:02:00;;;;;;;34.45;31.35;;;5.80;99.90;;;;;;4914765;29;20040;-82
2023/10/23 01:04:26;;;;;;;34.15;30.95;;;5.80;99.90;;;;;;4929417;29;20402;-82
2023/10/23 01:06:52;;;;;;;35.65;32.58;;;5.90;99.90;;;;;;4923052;29;20035;-82
2023/10/23 01:09:18;;;;;;;35.83;32.72;;;5.90;99.90;;;;;;4931703;29;20432;-81
2023/10/23 01:11:43;;;;;;;33.35;30.08;;;5.90;99.90;;;;;;4935268;29;20118;-82
2023/10/23 01:14:09;;;;;;;39.45;35.40;;;5.90;99.90;;;;;;4928476;29;20039;-82
2023/10/23 01:16:35;;;;;;;32.60;29.70;;;5.80;99.90;;;;;;4921941;29;20079;-82
2023/10/23 01:19:01;;;;;;;34.58;31.27;;;5.80;99.90;;;;;;4913487;29;20045;-81
2023/10/23 01:21:26;;;;;;;31.20;28.50;;;5.80;99.90;;;;;;4918950;29;20043;-81
2023/10/23 01:23:56;;;;;;;30.98;28.15;;;5.70;99.90;;;;;;4931208;29;20071;-81
2023/10/23 01:26:22;;;;;;;26.25;24.08;;;5.70;99.90;;;;;;4916484;29;20103;-82
2023/10/23 01:28:48;;;;;;;27.10;24.58;;;5.60;99.90;;;;;;4918701;29;20086;-81
2023/10/23 01:31:14;;;;;;;31.27;27.98;;;5.60;99.90;;;;;;4928084;29;20044;-82
2023/10/23 01:33:40;;;;;;;29.15;26.58;;;5.60;99.90;;;;;;4915111;29;20046;-81
2023/10/23 01:36:05;;;;;;;26.73;24.45;;;5.50;99.90;;;;;;4907511;29;20122;-82
2023/10/23 01:38:31;;;;;;;32.25;29.15;;;5.50;99.90;;;;;;4918655;29;20122;-82
2023/10/23 01:40:56;;;;;;;26.83;24.63;;;5.50;99.90;;;;;;4934620;29;20044;-82
2023/10/23 01:43:22;;;;;;;29.00;26.38;;;5.40;99.90;;;;;;4900580;29;20048;-82
2023/10/23 01:45:48;;;;;;;29.00;26.70;;;5.40;99.90;;;;;;4911196;29;20103;-82
2023/10/23 01:48:14;;;;;;;30.88;28.13;;;5.40;99.90;;;;;;4928582;29;20468;-82
2023/10/23 01:50:39;;;;;;;29.83;27.33;;;5.30;99.90;;;;;;4899366;29;20060;-82
2023/10/23 01:53:05;;;;;;;32.88;29.80;;;5.40;99.90;;;;;;4915351;29;20048;-82
2023/10/23 01:55:30;;;;;;;37.30;33.28;;;5.30;99.90;;;;;;4922172;29;20051;-82
2023/10/23 01:57:57;;;;;;;36.35;32.53;;;5.30;99.90;;;;;;4918422;29;20507;-82
2023/10/23 02:00:23;;;;;;;29.08;26.23;;;5.30;99.90;;;;;;4882604;29;20124;-82
2023/10/23 02:02:49;;;;;;;30.75;27.80;;;5.30;99.90;;;;;;4899193;29;20539;-82
2023/10/23 02:05:14;;;;;;;32.58;29.58;;;5.20;99.90;;;;;;4905517;29;20047;-82
2023/10/23 02:07:40;;;;;;;32.20;29.20;;;5.10;99.90;;;;;;4913225;29;20043;-82
2023/10/23 02:10:06;;;;;;;44.05;38.85;;;5.10;99.90;;;;;;4925919;29;20046;-82
2023/10/23 02:12:33;;;;;;;30.80;27.48;;;5.10;99.90;;;;;;4914967;29;20055;-82
2023/10/23 02:14:58;;;;;;;31.05;28.35;;;5.00;99.90;;;;;;4919375;29;20039;-82
2023/10/23 02:17:24;;;;;;;32.10;29.40;;;5.00;99.90;;;;;;4913667;29;20398;-82
2023/10/23 02:19:50;;;;;;;34.17;30.98;;;5.10;99.90;;;;;;4913026;29;20040;-82
2023/10/23 02:22:18;;;;;;;29.40;26.80;;;5.00;99.90;;;;;;4899063;29;20040;-82
2023/10/23 02:24:44;;;;;;;35.30;32.17;;;4.90;99.90;;;;;;4916911;29;20044;-82
2023/10/23 02:27:10;;;;;;;36.55;33.22;;;4.90;99.90;;;;;;4928351;29;20054;-82
2023/10/23 02:29:36;;;;;;;31.52;28.83;;;5.00;99.90;;;;;;4934146;29;20039;-82
2023/10/23 02:32:01;;;;;;;34.03;31.20;;;4.90;99.90;;;;;;4917980;29;20469;-82
2023/10/23 02:34:27;;;;;;;38.55;35.15;;;5.00;99.90;;;;;;4909242;29;20063;-82
2023/10/23 02:36:53;;;;;;;34.85;31.90;;;5.00;99.90;;;;;;4913284;29;20487;-82
2023/10/23 02:39:18;;;;;;;39.58;35.85;;;5.10;99.90;;;;;;4914896;29;20403;-82
2023/10/23 02:41:44;;;;;;;39.55;35.85;;;5.10;99.90;;;;;;4898958;29;20051;-82
2023/10/23 02:44:10;;;;;;;42.15;37.53;;;5.00;99.90;;;;;;4908333;29;20040;-82
2023/10/23 02:46:38;;;;;;;46.10;40.88;;;4.90;99.90;;;;;;4908546;29;20426;-82
2023/10/23 02:49:04;;;;;;;47.28;42.17;;;5.00;99.90;;;;;;4903619;29;20039;-82
2023/10/23 02:51:30;;;;;;;82.80;51.00;;;4.90;99.90;;;;;;4898787;29;20040;-82
2023/10/23 02:53:56;;;;;;;49.80;43.45;;;4.90;99.90;;;;;;4898374;29;20103;-82
2023/10/23 02:56:21;;;;;;;48.65;43.42;;;4.80;99.90;;;;;;4914601;29;20040;-82
2023/10/23 02:58:47;;;;;;;37.08;33.67;;;4.80;99.90;;;;;;4933485;29;20084;-81
2023/10/23 03:01:17;;;;;;;41.00;37.28;;;4.80;99.90;;;;;;4903509;29;20050;-82
2023/10/23 03:03:43;;;;;;;40.80;37.00;;;4.80;99.90;;;;;;4897895;29;20112;-82
2023/10/23 03:06:09;;;;;;;41.63;37.83;;;4.80;99.90;;;;;;4913008;29;20036;-82
2023/10/23 03:08:35;;;;;;;46.47;41.85;;;4.80;99.90;;;;;;4917449;29;20099;-81
2023/10/23 03:11:00;;;;;;;41.03;37.35;;;4.80;99.90;;;;;;4933344;29;20462;-82
2023/10/23 03:13:26;;;;;;;60.28;52.47;;;4.80;99.90;;;;;;4916680;29;20050;-81
2023/10/23 03:15:52;;;;;;;52.85;47.50;;;4.80;99.90;;;;;;4909544;29;20032;-82
2023/10/23 03:18:18;;;;;;;53.88;48.58;;;4.80;99.90;;;;;;4901669;29;20037;-81
2023/10/23 03:20:43;;;;;;;54.13;48.30;;;4.80;99.90;;;;;;4914356;29;20040;-82
2023/10/23 03:23:09;;;;;;;54.47;48.88;;;4.80;99.90;;;;;;4900696;29;20040;-82
2023/10/23 03:25:34;;;;;;;55.67;50.15;;;4.80;99.90;;;;;;4918756;29;20044;-82
2023/10/23 03:28:00;;;;;;;72.82;58.35;;;4.90;99.90;;;;;;4925676;29;20109;-82
2023/10/23 03:30:26;;;;;;;62.90;56.55;;;4.90;99.90;;;;;;4902179;29;20040;-81
2023/10/23 03:32:51;;;;;;;64.05;57.25;;;5.00;99.90;;;;;;4917703;29;20040;-82
2023/10/23 03:35:17;;;;;;;60.63;54.20;;;5.00;99.90;;;;;;4924747;29;20054;-81
2023/10/23 03:37:42;;;;;;;57.78;51.75;;;5.00;99.90;;;;;;4936798;29;20087;-81
2023/10/23 03:40:10;;;;;;;67.57;59.08;;;5.10;99.90;;;;;;4924596;29;20450;-81
2023/10/23 03:42:36;;;;;;;47.42;43.10;;;5.10;99.90;;;;;;4901720;29;20404;-82
2023/10/23 03:45:02;;;;;;;52.92;47.63;;;5.10;99.90;;;;;;4907010;29;20046;-82
2023/10/23 03:47:27;;;;;;;54.95;49.47;;;5.10;99.90;;;;;;4920676;29;20044;-82
2023/10/23 03:49:53;;;;;;;60.03;53.60;;;5.10;99.90;;;;;;4936508;29;20134;-82
2023/10/23 03:52:18;;;;;;;50.47;45.65;;;5.10;99.90;;;;;;4923958;29;20040;-82
2023/10/23 03:54:44;;;;;;;57.13;49.83;;;5.10;99.90;;;;;;4903929;29;20058;-82
2023/10/23 03:57:10;;;;;;;65.57;50.95;;;5.10;99.90;;;;;;4920788;29;20043;-82
2023/10/23 03:59:35;;;;;;;46.58;42.03;;;5.20;99.90;;;;;;4920508;29;20039;-82
2023/10/23 04:02:01;;;;;;;48.17;43.67;;;5.20;99.90;;;;;;4936477;29;20115;-82
2023/10/23 04:04:26;;;;;;;43.97;39.85;;;5.10;99.90;;;;;;4928006;29;20035;-82
2023/10/23 04:06:52;;;;;;;42.95;39.22;;;5.10;99.90;;;;;;4904023;29;20036;-82
2023/10/23 04:09:17;;;;;;;48.25;43.42;;;5.20;99.90;;;;;;4901757;29;20040;-82
2023/10/23 04:11:43;;;;;;;49.50;44.13;;;5.20;99.90;;;;;;4917035;29;20048;-82
2023/10/23 04:14:09;;;;;;;42.10;38.03;;;5.20;99.90;;;;;;4895999;29;20051;-82
2023/10/23 04:16:35;;;;;;;59.63;43.90;;;5.10;99.90;;;;;;4918694;29;20402;-83
2023/10/23 04:19:01;;;;;;;69.38;49.78;;;5.10;99.90;;;;;;4921003;29;20039;-82
2023/10/23 04:21:27;;;;;;;45.65;40.72;;;5.00;99.90;;;;;;4909940;29;20095;-82
2023/10/23 04:23:53;;;;;;;33.53;30.63;;;5.00;99.90;;;;;;4899889;29;20131;-81
2023/10/23 04:26:18;;;;;;;42.55;38.35;;;4.90;99.90;;;;;;4926218;29;20423;-82
2023/10/23 04:28:44;;;;;;;65.40;46.88;;;4.90;99.90;;;;;;4935948;29;20048;-82
2023/10/23 04:31:10;;;;;;;46.80;38.03;;;4.90;99.90;;;;;;4921054;29;20047;-82
2023/10/23 04:33:35;;;;;;;34.67;31.05;;;4.80;99.90;;;;;;4916168;29;20041;-82
2023/10/23 04:36:01;;;;;;;38.00;33.92;;;4.80;99.90;;;;;;4914150;29;20035;-82
2023/10/23 04:38:27;;;;;;;29.50;26.50;;;4.80;99.90;;;;;;4935775;29;20075;-82
2023/10/23 04:40:53;;;;;;;47.17;39.38;;;4.70;99.90;;;;;;4935571;29;20040;-82
2023/10/23 04:43:19;;;;;;;44.60;37.72;;;4.70;99.90;;;;;;4919809;29;20458;-82
2023/10/23 04:45:45;;;;;;;52.13;41.47;;;4.60;99.90;;;;;;4919059;29;20050;-82
2023/10/23 04:48:11;;;;;;;73.75;47.70;;;4.60;99.90;;;;;;4920374;29;20043;-82
2023/10/23 04:50:38;;;;;;;52.15;43.33;;;4.60;99.90;;;;;;4900783;29;20054;-82
2023/10/23 04:53:05;;;;;;;52.67;46.90;;;4.60;99.90;;;;;;4915665;29;20047;-82
2023/10/23 04:55:40;;;;;;;80.90;55.40;;;4.60;99.90;;;;;;4932448;29;20040;-82
2023/10/23 04:58:06;;;;;;;59.53;50.72;;;4.60;99.90;;;;;;4922823;29;20505;-82
2023/10/23 05:00:35;;;;;;;76.03;56.35;;;4.60;99.90;;;;;;4899469;29;20040;-82
2023/10/23 05:03:02;;;;;;;66.75;55.70;;;4.70;99.90;;;;;;4917232;29;20138;-82
2023/10/23 05:06:14;;;;;;;58.72;52.70;;;4.70;99.90;;;;;;4916701;29;20087;-82
2023/10/23 05:09:00;;;;;;;56.42;50.60;;;4.70;99.90;;;;;;4884973;29;20056;-82
2023/10/23 05:11:26;;;;;;;67.07;53.55;;;4.80;99.90;;;;;;4900044;29;20074;-82
2023/10/23 05:13:51;;;;;;;85.75;60.30;;;4.80;99.90;;;;;;4900933;29;20036;-85
2023/10/23 05:16:17;;;;;;;75.00;56.83;;;4.90;99.90;;;;;;4908712;29;20047;-81
2023/10/23 05:18:42;;;;;;;69.72;53.25;;;4.80;99.90;;;;;;4897463;29;20047;-83
2023/10/23 05:21:09;;;;;;;98.70;60.58;;;4.80;99.90;;;;;;4927976;29;20130;-84
2023/10/23 05:23:36;;;;;;;78.38;58.75;;;4.80;99.90;;;;;;4926541;29;20529;-83
2023/10/23 05:26:02;;;;;;;97.40;66.22;;;4.80;99.90;;;;;;4931641;29;20058;-83
2023/10/23 05:28:27;;;;;;;70.10;57.83;;;4.80;99.90;;;;;;4934862;29;20435;-83
2023/10/23 05:30:53;;;;;;;87.85;62.95;;;4.80;99.90;;;;;;4931837;29;20047;-83
2023/10/23 05:33:19;;;;;;;65.75;57.15;;;4.90;99.90;;;;;;4905592;29;20115;-83
2023/10/23 05:35:45;;;;;;;65.10;56.70;;;4.90;99.90;;;;;;4921642;29;20043;-82
2023/10/23 05:38:11;;;;;;;83.22;62.75;;;5.00;99.90;;;;;;4903935;29;20036;-82
2023/10/23 05:40:37;;;;;;;103.70;67.47;;;5.00;99.90;;;;;;4894625;29;20499;-83
2023/10/23 05:43:02;;;;;;;99.07;68.60;;;5.00;99.90;;;;;;4896574;29;20099;-85
2023/10/23 05:45:28;;;;;;;100.00;67.97;;;5.00;99.90;;;;;;4912555;29;20493;-84
2023/10/23 05:47:53;;;;;;;89.90;61.97;;;5.00;99.90;;;;;;4899859;29;20039;-84
2023/10/23 05:50:19;;;;;;;77.57;58.40;;;5.00;99.90;;;;;;4918170;29;20048;-84
2023/10/23 05:52:44;;;;;;;62.45;52.28;;;4.90;99.90;;;;;;4899470;29;20044;-84
2023/10/23 05:55:10;;;;;;;58.33;50.47;;;4.90;99.90;;;;;;4899463;29;20079;-84
2023/10/23 05:57:36;;;;;;;56.25;49.42;;;4.90;99.90;;;;;;4897781;29;20039;-84
2023/10/23 06:00:03;;;;;;;77.55;57.67;;;4.90;99.90;;;;;;4900640;29;20047;-86
2023/10/23 06:02:32;;;;;;;84.68;58.97;;;4.80;99.90;;;;;;4907613;29;20054;-82
2023/10/23 06:04:58;;;;;;;62.20;51.83;;;4.80;99.90;;;;;;4896899;29;20032;-84
2023/10/23 06:07:23;;;;;;;70.32;53.00;;;4.80;99.90;;;;;;4928253;29;20542;-83
2023/10/23 06:09:49;;;;;;;69.70;53.60;;;4.80;99.90;;;;;;4933629;29;20429;-84
2023/10/23 06:12:15;;;;;;;70.78;53.28;;;4.80;99.90;;;;;;4898837;29;20046;-85
2023/10/23 06:14:40;;;;;;;121.15;68.18;;;4.80;99.90;;;;;;4897582;29;20384;-85
2023/10/23 06:17:06;;;;;;;109.15;64.30;;;4.80;99.90;;;;;;4903759;29;20094;-84
2023/10/23 06:19:32;;;;;;;110.88;63.63;;;4.80;99.90;;;;;;4916509;29;20047;-84
2023/10/23 06:21:59;;;;;;;137.48;78.10;;;4.80;99.90;;;;;;4914841;29;20063;-84
2023/10/23 06:24:25;;;;;;;173.63;84.68;;;4.80;99.90;;;;;;4914750;29;20051;-85
2023/10/23 06:26:50;;;;;;;158.57;88.10;;;4.90;99.90;;;;;;4899032;29;20040;-85
2023/10/23 06:29:16;;;;;;;109.18;72.05;;;5.00;99.90;;;;;;4914863;29;20044;-84
2023/10/23 06:31:41;;;;;;;108.25;73.78;;;5.00;99.90;;;;;;4914424;29;20092;-85
2023/10/23 06:34:07;;;;;;;101.90;70.63;;;5.10;99.90;;;;;;4898958;29;20040;-85
2023/10/23 06:36:32;;;;;;;100.57;68.40;;;5.20;99.90;;;;;;4898703;29;20149;-85
2023/10/23 06:38:58;;;;;;;98.82;69.68;;;5.10;99.90;;;;;;4898878;29;20159;-85
2023/10/23 06:41:24;;;;;;;175.55;85.90;;;5.20;99.90;;;;;;4898777;29;20044;-85
2023/10/23 06:43:49;;;;;;;187.63;81.88;;;5.30;99.90;;;;;;4914629;29;20052;-85
2023/10/23 06:46:15;;;;;;;123.00;73.95;;;5.30;99.90;;;;;;4898624;29;20058;-85
2023/10/23 06:48:44;;;;;;;84.22;61.90;;;5.30;99.90;;;;;;4899013;29;20040;-85
2023/10/23 06:51:16;;;;;;;105.72;67.53;;;5.20;99.90;;;;;;4898749;29;20070;-85
2023/10/23 06:53:41;;;;;;;166.45;80.93;;;5.20;99.90;;;;;;4898852;29;20036;-86
2023/10/23 06:56:09;;;;;;;419.00;109.60;;;5.20;99.90;;;;;;4898663;29;20032;-85
2023/10/23 06:58:34;;;;;;;423.70;105.10;;;5.20;99.90;;;;;;4901379;29;20075;-85
2023/10/23 07:01:09;;;;;;;239.27;82.75;;;5.20;99.90;;;;;;4902485;29;20075;-85
2023/10/23 07:03:36;;;;;;;434.67;105.20;;;5.20;99.90;;;;;;4918432;29;20063;-85
2023/10/23 07:06:08;;;;;;;282.27;97.28;;;5.20;99.90;;;;;;4918015;29;20044;-85
2023/10/23 07:08:34;;;;;;;464.52;119.45;;;5.20;99.90;;;;;;4902536;29;20051;-85
2023/10/23 07:11:00;;;;;;;438.75;117.95;;;5.20;99.90;;;;;;4918053;29;20499;-84
2023/10/23 07:13:27;;;;;;;379.02;107.78;;;5.20;99.90;;;;;;4918055;29;20136;-85
2023/10/23 07:15:52;;;;;;;240.25;87.93;;;5.30;99.90;;;;;;4906591;29;20071;-85
2023/10/23 07:18:18;;;;;;;223.70;89.15;;;5.30;99.90;;;;;;4918006;29;20083;-85
2023/10/23 07:20:59;;;;;;;231.20;91.00;;;5.30;99.90;;;;;;4902227;29;20475;-85
2023/10/23 07:23:25;;;;;;;190.48;86.65;;;5.40;99.90;;;;;;4902232;29;20572;-85
2023/10/23 07:26:14;;;;;;;207.98;93.65;;;5.50;99.90;;;;;;4901958;29;20051;-85
2023/10/23 07:28:40;;;;;;;197.73;94.18;;;5.60;99.90;;;;;;4902393;29;20471;-85
2023/10/23 07:31:07;;;;;;;218.65;97.00;;;5.70;99.90;;;;;;4902026;29;20075;-85
2023/10/23 07:33:33;;;;;;;180.95;91.00;;;5.80;99.90;;;;;;4901959;29;20099;-85
2023/10/23 07:36:02;;;;;;;188.98;93.82;;;6.00;99.90;;;;;;4901739;29;20036;-85
2023/10/23 07:38:28;;;;;;;170.70;91.38;;;6.10;99.90;;;;;;4902018;29;20131;-85
2023/10/23 07:40:54;;;;;;;147.45;88.68;;;6.20;99.90;;;;;;4901985;29;20135;-85
2023/10/23 07:43:19;;;;;;;188.38;93.53;;;6.40;99.90;;;;;;4901964;29;20052;-85
2023/10/23 07:45:45;;;;;;;153.32;81.80;;;6.50;99.90;;;;;;4901599;29;20422;-85
2023/10/23 07:48:10;;;;;;;141.32;78.70;;;6.60;99.90;;;;;;4901826;29;20406;-85
2023/10/23 07:50:36;;;;;;;127.90;75.97;;;6.70;99.90;;;;;;4901805;29;20415;-85
2023/10/23 07:53:02;;;;;;;141.18;75.38;;;6.70;99.90;;;;;;4901663;29;20410;-85
2023/10/23 07:55:28;;;;;;;154.75;78.38;;;6.80;99.90;;;;;;4917388;29;20044;-85
2023/10/23 07:57:53;;;;;;;221.60;86.18;;;6.90;99.90;;;;;;4917281;29;20052;-84
2023/10/23 08:00:19;;;;;;;308.75;97.70;;;6.90;99.90;;;;;;4901690;29;20047;-85
2023/10/23 08:02:44;;;;;;;474.08;117.68;;;7.00;99.90;;;;;;4901622;29;20059;-84
2023/10/23 08:05:10;;;;;;;513.80;118.55;;;7.00;99.90;;;;;;4917249;29;20111;-85
2023/10/23 08:07:35;;;;;;;514.28;116.47;;;7.10;99.90;;;;;;4901487;29;20044;-85
2023/10/23 08:10:02;;;;;;;525.05;117.28;;;7.20;99.90;;;;;;4916900;29;20050;-83
2023/10/23 08:12:28;;;;;;;512.58;115.50;;;7.40;99.90;;;;;;4901443;29;20044;-85
2023/10/23 08:14:53;;;;;;;457.90;108.80;;;7.50;99.90;;;;;;4901083;29;20043;-85
2023/10/23 08:17:19;;;;;;;487.60;118.65;;;7.60;99.90;;;;;;4901312;29;20162;-85
2023/10/23 08:19:44;;;;;;;478.73;112.90;;;7.70;99.90;;;;;;4917227;29;20083;-85
2023/10/23 08:22:10;;;;;;;423.75;104.63;;;7.70;99.90;;;;;;4916845;29;20470;-85
2023/10/23 08:24:35;;;;;;;439.70;113.60;;;7.90;99.90;;;;;;4916901;29;20130;-85
2023/10/23 08:27:01;;;;;;;447.25;111.88;;;8.00;99.90;;;;;;4901230;29;20094;-85
2023/10/23 08:29:28;;;;;;;324.83;96.80;;;8.10;99.90;;;;;;4901002;29;20063;-85
2023/10/23 08:31:53;;;;;;;437.42;107.70;;;8.20;99.90;;;;;;4900952;29;20419;-85
2023/10/23 08:34:21;;;;;;;351.50;96.38;;;8.30;99.90;;;;;;4916566;29;20048;-84
2023/10/23 08:36:48;;;;;;;386.17;104.15;;;8.40;99.90;;;;;;4900733;29;20044;-85
2023/10/23 08:39:13;;;;;;;434.73;109.78;;;8.40;99.90;;;;;;4916568;29;20040;-84
2023/10/23 08:41:39;;;;;;;329.38;97.30;;;8.50;99.90;;;;;;4900729;29;20055;-84
2023/10/23 08:44:06;;;;;;;376.70;104.28;;;8.50;99.90;;;;;;4900725;29;20055;-84
2023/10/23 08:46:34;;;;;;;259.50;91.30;;;8.60;99.90;;;;;;4900675;29;20039;-85
2023/10/23 08:49:03;;;;;;;292.55;94.78;;;8.70;99.90;;;;;;4916702;29;20047;-85
2023/10/23 08:51:33;;;;;;;238.13;87.20;;;8.80;99.90;;;;;;4900625;29;20062;-85
2023/10/23 08:54:06;;;;;;;278.55;89.22;;;8.90;99.90;;;;;;4900847;29;20062;-85
2023/10/23 08:56:35;;;;;;;;;;;9.00;99.90;;;;;;4916505;29;20127;-85
2023/10/23 08:59:01;;;;;;;511.48;110.40;;;9.10;99.90;;;;;;4900644;29;19919;-85
2023/10/23 09:01:28;;;;;;;241.65;83.13;;;9.20;99.90;;;;;;4916070;29;20052;-85
2023/10/23 09:14:31;;;;;;;202.48;60.15;;;9.40;99.90;;;;;;4934325;24;20043;-84
2023/10/23 09:16:59;;;;;;;293.10;76.63;;;9.50;99.90;;;;;;4919017;29;20090;-84
2023/10/23 09:19:38;;;;;;;170.05;62.22;;;9.50;99.90;;;;;;4918776;29;20044;-84
2023/10/23 09:22:06;;;;;;;211.15;66.38;;;9.60;99.90;;;;;;4901241;29;20430;-84
2023/10/23 09:24:31;;;;;;;284.15;72.78;;;9.70;99.90;;;;;;4900038;29;20044;-84
2023/10/23 09:27:03;;;;;;;148.40;54.10;;;9.70;99.90;;;;;;4900023;29;20042;-84
2023/10/23 09:29:28;;;;;;;203.13;62.63;;;9.80;99.90;;;;;;4868185;29;20499;-84
2023/10/23 09:31:59;;;;;;;116.72;49.90;;;9.80;99.90;;;;;;4881227;29;20048;-84
2023/10/23 09:34:25;;;;;;;277.00;72.60;;;9.80;99.90;;;;;;4881402;29;20464;-84
2023/10/23 09:36:51;;;;;;;188.52;62.03;;;9.80;99.90;;;;;;4881048;29;20044;-84
2023/10/23 09:39:18;;;;;;;137.88;57.88;;;9.90;99.90;;;;;;4865569;29;20040;-83
2023/10/23 09:41:47;;;;;;;125.85;56.05;;;10.00;99.90;;;;;;4865570;29;20087;-83
2023/10/23 09:44:14;;;;;;;199.30;62.97;;;10.00;99.90;;;;;;4865377;29;20045;-83
2023/10/23 09:46:42;;;;;;;139.30;60.65;;;10.00;99.90;;;;;;4881286;29;20100;-83
2023/10/23 09:49:09;;;;;;;139.48;63.75;;;10.10;99.90;;;;;;4880853;29;20051;-83
2023/10/23 09:51:40;;;;;;;134.32;61.03;;;10.00;99.90;;;;;;4880678;29;20049;-83
2023/10/23 09:54:17;;;;;;;143.65;64.60;;;10.10;99.90;;;;;;4880775;29;20499;-84
2023/10/23 09:56:48;;;;;;;116.15;63.03;;;10.10;99.90;;;;;;4865260;29;20039;-83
2023/10/23 09:59:24;;;;;;;85.70;58.17;;;10.20;99.90;;;;;;4881066;29;20399;-83
2023/10/23 10:01:51;;;;;;;85.88;58.45;;;10.20;99.90;;;;;;4880664;29;20076;-83
2023/10/23 10:04:19;;;;;;;76.47;58.45;;;10.20;99.90;;;;;;4865202;29;20339;-83
2023/10/23 10:06:54;;;;;;;88.88;62.75;;;10.40;99.90;;;;;;4865280;29;20520;-83
2023/10/23 10:09:22;;;;;;;74.18;58.92;;;10.60;99.90;;;;;;4880647;29;20056;-83
2023/10/23 10:11:49;;;;;;;72.18;57.60;;;10.70;99.90;;;;;;4865078;29;20041;-84
2023/10/23 10:14:16;;;;;;;175.52;80.47;;;10.80;99.90;;;;;;4880719;29;20069;-84
2023/10/23 10:16:41;;;;;;;84.88;59.45;;;11.00;99.90;;;;;;4865091;29;20044;-83
2023/10/23 10:19:08;;;;;;;61.50;54.67;;;11.10;99.90;;;;;;4880547;29;20127;-84
2023/10/23 10:21:44;;;;;;;99.90;58.97;;;11.20;99.90;;;;;;4880631;29;20044;-83
2023/10/23 10:24:11;;;;;;;55.58;49.65;;;11.30;99.90;;;;;;4865007;29;20045;-84
2023/10/23 10:26:38;;;;;;;91.68;62.25;;;11.30;99.90;;;;;;4880246;29;20040;-83
2023/10/23 10:29:04;;;;;;;47.13;42.72;;;11.40;99.90;;;;;;4864708;29;20040;-83
2023/10/23 10:32:05;;;;;;;51.38;46.05;;;11.50;99.90;;;;;;4879950;29;20051;-83
2023/10/23 10:34:33;;;;;;;68.22;50.00;;;11.60;99.90;;;;;;4880269;29;20127;-83
2023/10/23 10:36:59;;;;;;;86.90;51.05;;;11.60;99.90;;;;;;4864757;29;20100;-83
2023/10/23 10:39:50;;;;;;;70.03;48.60;;;11.60;99.90;;;;;;4880293;29;20119;-83
2023/10/23 10:42:24;;;;;;;61.45;45.50;;;11.70;99.90;;;;;;4870191;29;20056;-84
2023/10/23 10:44:59;;;;;;;48.47;41.00;;;11.70;99.90;;;;;;4880094;29;20082;-83
2023/10/23 10:47:43;;;;;;;53.63;42.53;;;11.70;99.90;;;;;;4880266;29;20071;-84
2023/10/23 10:50:12;;;;;;;53.33;41.50;;;11.70;99.90;;;;;;4880139;29;20045;-83
2023/10/23 10:52:40;;;;;;;42.20;37.97;;;11.70;99.90;;;;;;4864985;29;20060;-84
2023/10/23 10:55:10;;;;;;;66.70;46.92;;;11.70;99.90;;;;;;4880055;29;20068;-84
2023/10/23 10:57:44;;;;;;;47.90;41.08;;;11.70;99.90;;;;;;4880062;29;20092;-83
2023/10/23 11:00:11;;;;;;;78.15;48.17;;;11.80;99.90;;;;;;4880064;29;20072;-84
2023/10/23 11:02:37;;;;;;;68.18;47.00;;;11.80;99.90;;;;;;4880190;29;20075;-83
2023/10/23 11:05:09;;;;;;;40.30;36.25;;;11.80;99.90;;;;;;4879827;29;20127;-83
2023/10/23 11:07:35;;;;;;;56.28;42.42;;;11.80;99.90;;;;;;4879989;29;20040;-83
2023/10/23 11:10:01;;;;;;;39.22;35.35;;;11.80;99.90;;;;;;4879810;29;20072;-84
2023/10/23 11:12:26;;;;;;;49.67;41.85;;;11.70;99.90;;;;;;4879811;29;20036;-82
2023/10/23 11:14:52;;;;;;;46.22;41.38;;;11.70;99.90;;;;;;4880453;29;20467;-83
2023/10/23 11:17:18;;;;;;;49.00;42.50;;;11.70;99.90;;;;;;4879972;29;20143;-83
2023/10/23 11:19:44;;;;;;;42.30;37.95;;;11.70;99.90;;;;;;4879879;29;20460;-83
2023/10/23 11:22:14;;;;;;;36.67;33.35;;;11.80;99.90;;;;;;4879790;29;20055;-83
2023/10/23 11:24:40;;;;;;;37.20;33.63;;;11.80;99.90;;;;;;4879675;29;20402;-84
2023/10/23 11:27:07;;;;;;;49.92;42.05;;;11.80;99.90;;;;;;4880100;29;20033;-83
2023/10/23 11:29:48;;;;;;;54.85;44.97;;;11.80;99.90;;;;;;4880024;29;20044;-83
2023/10/23 11:32:16;;;;;;;51.15;42.50;;;11.80;99.90;;;;;;4879770;29;20491;-83
2023/10/23 11:34:42;;;;;;;41.67;37.55;;;11.80;99.90;;;;;;4879590;29;20084;-83
2023/10/23 11:37:09;;;;;;;41.20;37.08;;;11.80;99.90;;;;;;4879892;29;20440;-83
2023/10/23 11:39:36;;;;;;;38.10;34.50;;;11.80;99.90;;;;;;4879664;29;20043;-84
2023/10/23 11:42:02;;;;;;;40.47;36.50;;;11.80;99.90;;;;;;4879431;29;20143;-83
2023/10/23 11:44:30;;;;;;;43.38;38.75;;;11.80;99.90;;;;;;4881972;29;20045;-83
2023/10/23 11:46:59;;;;;;;40.58;36.67;;;11.70;99.90;;;;;;4882945;29;20052;-83
2023/10/23 11:49:25;;;;;;;41.92;37.90;;;11.70;99.90;;;;;;4883210;29;20518;-84
2023/10/23 11:51:52;;;;;;;39.05;35.22;;;11.70;99.90;;;;;;4867453;29;20044;-84
2023/10/23 11:54:18;;;;;;;38.78;34.80;;;11.70;99.90;;;;;;4883113;29;20448;-84
2023/10/23 11:56:44;;;;;;;39.50;35.72;;;11.70;99.90;;;;;;4882751;29;20507;-84
2023/10/23 11:59:20;;;;;;;43.90;38.40;;;11.60;99.90;;;;;;4867679;29;20575;-83
2023/10/23 12:01:47;;;;;;;39.97;36.03;;;11.70;99.90;;;;;;4882853;29;20075;-83
2023/10/23 12:04:13;;;;;;;39.20;35.47;;;11.70;99.90;;;;;;4882900;29;20045;-83
2023/10/23 12:06:39;;;;;;;40.28;35.97;;;11.70;99.90;;;;;;4882670;29;20048;-83
2023/10/23 12:09:06;;;;;;;39.80;35.55;;;11.70;99.90;;;;;;4867335;29;20045;-84
2023/10/23 12:11:33;;;;;;;39.83;35.85;;;11.80;99.90;;;;;;4882655;29;20045;-83
2023/10/23 12:14:00;;;;;;;36.55;32.90;;;11.90;99.90;;;;;;4882481;29;20052;-83
2023/10/23 12:16:32;;;;;;;37.50;33.90;;;11.90;99.90;;;;;;4882433;29;20047;-83
2023/10/23 12:18:59;;;;;;;36.47;33.08;;;12.00;99.90;;;;;;4882512;29;20073;-84
2023/10/23 12:21:25;;;;;;;38.25;34.33;;;12.00;99.90;;;;;;4882466;29;20527;-83
2023/10/23 12:23:51;;;;;;;37.08;33.45;;;12.00;99.90;;;;;;4866937;29;20581;-83
2023/10/23 12:26:18;;;;;;;41.75;37.42;;;12.00;99.90;;;;;;4882599;29;20343;-83
2023/10/23 12:28:44;;;;;;;37.63;34.10;;;12.00;99.90;;;;;;4882661;29;20048;-83
2023/10/23 12:31:09;;;;;;;37.63;34.05;;;12.00;99.90;;;;;;4882490;29;20061;-83
2023/10/23 12:33:35;;;;;;;36.63;33.22;;;12.10;99.90;;;;;;4882423;29;20047;-83
2023/10/23 12:36:03;;;;;;;35.90;32.35;;;12.20;99.90;;;;;;4882147;29;20044;-83
2023/10/23 12:38:29;;;;;;;37.25;33.65;;;12.10;99.90;;;;;;4882216;29;20049;-83
2023/10/23 12:40:55;;;;;;;37.20;33.90;;;12.10;99.90;;;;;;4882205;29;20428;-84